Key West, FL (33040)

5:04 AM EST on January 18, 2017 (GMT -0500)
Key West High School WeatherSTEM | | Change Station

Elev 0 ft 24.55 °N, 81.78 °W | Updated 1 minute ago

Scattered Clouds
Scattered Clouds
74.8 °F
Feels Like 75 °F
N
0.0
Wind Variable Wind from SE

Today
High -- | Low -- °F
--% Chance of Precip.
Yesterday
High -- | Low -- °F
Precip. -- in
Pressure 30.14 in
Visibility 10.0 miles
Clouds Few 4000 ft
Scattered Clouds 4900 ft
Heat Index 75 °F
Dew Point 68 °F
Humidity 79%
Rainfall 0.00 in
Snow Depth Not available.
7:12 AM 6:02 PM
Waning Gibbous, 64% visible
METAR KEYW 180953Z AUTO 13010KT 10SM FEW040 SCT049 24/19 A3014 RMK AO2 SLP206 T02390194
Pressure 30.14 in
Visibility 10.0 miles
Clouds Few 4000 ft
Scattered Clouds 4900 ft
Heat Index 75 °F
Dew Point 68 °F
Humidity 79%
Rainfall 0.00 in
Snow Depth Not available.
7:12 AM 6:02 PM
Waning Gibbous, 64% visible
METAR KEYW 180953Z AUTO 13010KT 10SM FEW040 SCT049 24/19 A3014 RMK AO2 SLP206 T02390194

Get Your Daily Forecast Email!

Thanks for signing up!

Be on the lookout for a verification email in your inbox.

You'll start receiving the daily forecast at 8 AM.

×

10-Day Weather Forecast

Almanac

Astronomy

Jan. 18, 2017 Rise Set
Actual Time
Civil Twilight
Nautical Twilight
Astronomical Twilight
Moon
Length of Visible Light
Length of Day
Tomorrow will be .
, % of the Moon is Illuminated

Today's Extremes

State Highs State Lows

Community

WunderPhotos

Upload Photos

1,962,540 photos uploaded!

WunderBlog® & News

Nearby

Air Quality

  Air Quality AQ Index Pollutant
Not available.

Snow Depth

Station Depth Elevation

Earthquake Activity

City Distance Mag. Time & Date
Minimum magnitude displayed is 2.5.

Coastal Water Temperatures

Place Temperature

Stations

Nearby Weather Stations

Station Location Temp. Windchill Dew Point Humidity Wind Precip. Elev Updated Type
                   

Watches & Warnings

There are currently no watches in effect.